Nutol, Philippines
Current Conditions -  °F | °C
As of 9:00 PM on Sunday 23 Nov 2014 (Local Time) from RPMD Reporting Station
Broken Clouds Broken Clouds  
Wind Chill: 81°   Ceiling: 29000
Heat Index: 87°   Visibility: 6mi
Dew Point: 77°   Wind: 1mph
Humidity: 89%   Direction: NA
Pressure: 29.85"   Gusts: NA
Location:  6.19°N, 125.14°E
Report Text: RPMD 231300Z VRB01KT 9999 SCT016 BKN290 27/25 Q1011 RMK A2985
Loading
Personal Weather Stations






























Interactive Weather Map New forecast layout! Learn more

10-Day Weather Forecast

Advertisements
Track Severe Weather on mobile